Time;durP1;ratioP1;P1;durP2;ratioP2;P2;SDS_P1;SDS_P2;PMS_P1;PMS_P2;Temp;Humidity;BMP_temperature;BMP_pressure;BME280_temperature;BME280_humidity;BME280_pressure;Samples;Min_cycle;Max_cycle;Signal;HPM_P1;HPM_P2
2022/05/21 00:01:52;;;;;;;7.03;2.80;;;;;;;13.14;68.66;95312.84;5054590;28;20171;-84
2022/05/21 00:04:18;;;;;;;7.33;2.87;;;;;;;12.85;68.42;95276.44;5054318;28;20175;-84
2022/05/21 00:06:43;;;;;;;8.83;2.00;;;;;;;13.07;68.31;95327.88;5036515;28;20172;-84
2022/05/21 00:09:09;;;;;;;5.60;2.77;;;;;;;13.01;69.01;95330.59;5038128;28;20658;-84
2022/05/21 00:11:35;;;;;;;7.17;2.57;;;;;;;12.98;69.49;95326.53;5047634;28;20206;-84
2022/05/21 00:14:02;;;;;;;6.47;2.10;;;;;;;12.64;69.98;95296.06;5054286;28;20228;-83
2022/05/21 00:16:29;;;;;;;4.90;2.43;;;;;;;12.82;70.89;95324.41;5054389;28;20663;-84
2022/05/21 00:18:55;;;;;;;7.60;2.17;;;;;;;12.66;71.02;95303.78;5054049;28;20222;-82
2022/05/21 00:21:20;;;;;;;3.97;2.20;;;;;;;12.67;70.99;95305.41;5036349;28;20170;-82
2022/05/21 00:23:46;;;;;;;6.13;2.93;;;;;;;12.67;71.44;95313.31;5054304;28;20203;-82
2022/05/21 00:26:14;;;;;;;8.53;2.77;;;;;;;12.66;71.47;95311.69;5053536;28;20190;-82
2022/05/21 00:28:42;;;;;;;6.80;2.57;;;;;;;12.64;71.68;95311.09;5054027;28;20207;-82
2022/05/21 00:31:09;;;;;;;11.50;3.67;;;;;;;12.33;72.16;95270.44;5054027;28;20282;-83
2022/05/21 00:33:35;;;;;;;18.47;2.80;;;;;;;12.26;72.34;95269.69;5036270;28;20213;-83
2022/05/21 00:36:02;;;;;;;14.60;2.90;;;;;;;12.44;73.32;95295.38;5053969;28;20175;-83
2022/05/21 00:38:27;;;;;;;14.63;3.23;;;;;;;12.19;73.03;95255.69;5036064;28;20182;-83
2022/05/21 00:40:54;;;;;;;9.03;3.00;;;;;;;12.31;73.23;95283.03;5053758;28;20163;-83
2022/05/21 00:44:08;;;;;;;10.90;3.77;;;;;;;12.28;73.80;95294.00;5053526;28;20178;-83
2022/05/21 00:46:37;;;;;;;6.97;2.60;;;;;;;12.24;73.45;95281.44;5018537;28;20585;-83
2022/05/21 00:49:16;;;;;;;6.90;2.50;;;;;;;12.09;73.53;95261.44;5053450;28;20165;-83
2022/05/21 00:51:54;;;;;;;17.53;3.10;;;;;;;12.09;73.70;95271.19;5053712;28;20580;-83
2022/05/21 00:54:26;;;;;;;7.70;2.47;;;;;;;11.83;74.05;95234.34;5034555;28;20163;-83
2022/05/21 00:56:57;;;;;;;4.93;2.70;;;;;;;11.90;74.39;95246.47;5035820;28;20228;-83
2022/05/21 01:02:09;;;;;;;9.73;3.13;;;;;;;11.94;74.14;95250.31;5053623;28;20179;-81
2022/05/21 01:04:36;;;;;;;6.33;3.17;;;;;;;11.79;74.48;95233.13;5052972;28;20167;-81
2022/05/21 01:07:03;;;;;;;10.73;5.40;;;;;;;11.69;74.60;95233.53;5052966;28;20179;-81
2022/05/21 01:09:29;;;;;;;12.43;6.90;;;;;;;11.58;75.47;95258.75;5052935;28;20175;-81
2022/05/21 01:11:56;;;;;;;13.93;5.20;;;;;;;11.47;75.63;95238.28;5052774;28;20195;-81
2022/05/21 01:14:22;;;;;;;9.23;5.17;;;;;;;11.70;75.63;95270.25;5035310;28;20163;-82
2022/05/21 01:16:49;;;;;;;12.07;5.80;;;;;;;11.51;75.53;95243.94;5053062;28;20201;-82
2022/05/21 01:19:15;;;;;;;12.47;5.60;;;;;;;11.70;75.94;95266.81;5035284;28;20261;-82
2022/05/21 01:21:41;;;;;;;9.13;5.00;;;;;;;11.51;75.66;95247.38;5043785;28;20206;-82
2022/05/21 01:24:07;;;;;;;14.87;4.57;;;;;;;11.43;76.31;95244.97;5043990;28;20170;-82
2022/05/21 01:26:34;;;;;;;8.50;5.00;;;;;;;11.50;77.13;95273.97;5042835;28;20155;-82
2022/05/21 01:29:04;;;;;;;10.37;3.93;;;;;;;11.54;76.22;95275.97;5051428;28;20650;-82
2022/05/21 01:31:32;;;;;;;6.90;4.40;;;;;;;11.46;76.43;95281.47;5052908;28;20213;-81
2022/05/21 01:33:59;;;;;;;10.50;4.27;;;;;;;11.27;76.71;95248.03;5052713;28;20258;-82
2022/05/21 01:36:24;;;;;;;7.47;4.47;;;;;;;11.40;76.90;95271.75;5052737;28;20179;-81
2022/05/21 01:38:50;;;;;;;7.33;4.30;;;;;;;11.47;76.45;95267.28;5052825;28;20221;-81
2022/05/21 01:41:16;;;;;;;12.43;4.90;;;;;;;11.49;76.70;95272.34;5052665;28;20155;-82
2022/05/21 01:46:25;;;;;;;10.37;3.90;;;;;;;11.28;76.59;95252.28;5052637;28;20173;-81
2022/05/21 01:48:51;;;;;;;5.73;3.53;;;;;;;11.20;76.57;95241.97;5052251;28;20166;-82
2022/05/21 01:51:17;;;;;;;17.97;4.83;;;;;;;11.25;76.77;95264.03;5052378;28;20580;-82
2022/05/21 01:53:43;;;;;;;6.93;3.80;;;;;;;11.07;76.81;95239.38;5052845;28;20167;-81
2022/05/21 01:56:09;;;;;;;7.23;3.43;;;;;;;11.04;77.32;95239.75;5052450;28;20234;-82
2022/05/21 01:58:35;;;;;;;4.27;3.20;;;;;;;10.99;77.27;95219.28;5052263;28;20167;-81
2022/05/21 02:01:02;;;;;;;14.17;3.60;;;;;;;11.23;77.44;95262.66;5052133;28;20167;-81
2022/05/21 02:03:28;;;;;;;9.63;3.20;;;;;;;11.03;77.22;95233.69;5052486;28;20163;-81
2022/05/21 02:05:53;;;;;;;3.90;2.63;;;;;;;10.86;78.11;95261.44;5052021;28;20254;-81
2022/05/21 02:08:19;;;;;;;7.93;3.30;;;;;;;10.69;78.23;95239.97;5052559;28;20646;-81
2022/05/21 02:10:45;;;;;;;8.20;4.50;;;;;;;10.75;78.85;95251.50;5052275;28;20238;-81
2022/05/21 02:13:20;;;;;;;14.43;4.47;;;;;;;10.64;78.14;95228.44;5052243;28;20178;-81
2022/05/21 02:15:46;;;;;;;6.53;3.63;;;;;;;10.77;78.50;95223.97;5050979;28;20184;-81
2022/05/21 02:18:12;;;;;;;13.90;5.33;;;;;;;10.80;77.55;95223.56;5051977;28;20297;-81
2022/05/21 02:20:38;;;;;;;6.67;3.73;;;;;;;10.97;77.64;95231.88;5051904;28;20594;-81
2022/05/21 02:23:04;;;;;;;8.17;3.73;;;;;;;10.95;77.57;95237.34;5034102;28;20738;-81
2022/05/21 02:25:29;;;;;;;10.63;3.87;;;;;;;10.75;78.28;95202.28;5051838;28;20225;-81
2022/05/21 02:27:55;;;;;;;6.03;2.97;;;;;;;10.78;78.90;95222.97;5051747;28;20182;-81
2022/05/21 02:30:21;;;;;;;6.77;3.40;;;;;;;10.90;78.72;95241.56;5051635;28;20195;-81
2022/05/21 02:32:46;;;;;;;5.30;2.97;;;;;;;10.85;78.67;95218.50;5051751;28;20254;-81
2022/05/21 02:35:13;;;;;;;9.17;3.27;;;;;;;10.93;78.88;95236.72;5051562;28;20547;-81
2022/05/21 02:40:23;;;;;;;18.17;6.07;;;;;;;10.71;78.68;95200.28;5051426;28;20174;-81
2022/05/21 02:42:49;;;;;;;21.23;7.87;;;;;;;10.76;78.76;95211.00;5051598;28;20202;-82
2022/05/21 02:45:18;;;;;;;37.17;16.27;;;;;;;10.74;78.88;95219.09;5043581;28;20212;-82
2022/05/21 02:47:44;;;;;;;39.47;17.53;;;;;;;10.88;78.00;95233.09;5039222;28;20175;-81
2022/05/21 02:50:10;;;;;;;37.10;19.93;;;;;;;10.79;77.85;95214.03;5033783;28;20175;-81
2022/05/21 02:52:36;;;;;;;39.70;20.70;;;;;;;10.84;77.83;95227.41;5051478;28;20179;-81
2022/05/21 02:55:03;;;;;;;36.00;17.83;;;;;;;10.77;77.87;95215.25;5051711;28;20263;-81
2022/05/21 02:57:28;;;;;;;34.40;19.30;;;;;;;10.80;78.06;95238.56;5051354;28;20638;-81
2022/05/21 02:59:53;;;;;;;35.93;17.33;;;;;;;10.74;78.13;95232.25;5050390;28;20187;-81
2022/05/21 03:02:19;;;;;;;39.53;20.20;;;;;;;10.73;78.33;95245.63;5050310;28;20179;-81
2022/05/21 03:04:45;;;;;;;36.77;18.13;;;;;;;10.64;78.54;95231.06;5050505;28;20193;-81
2022/05/21 03:07:11;;;;;;;29.77;16.73;;;;;;;10.61;78.61;95237.53;5050522;28;20566;-81
2022/05/21 03:12:20;;;;;;;42.93;18.93;;;;;;;10.57;79.38;95246.81;5039936;28;20688;-82
2022/05/21 03:14:46;;;;;;;38.40;20.40;;;;;;;10.59;79.08;95265.88;5023667;28;20183;-82
2022/05/21 03:17:12;;;;;;;30.97;18.33;;;;;;;10.55;79.41;95252.28;5039108;28;20721;-82
2022/05/21 03:19:38;;;;;;;38.67;19.00;;;;;;;10.65;79.67;95254.53;5040497;28;20167;-82
2022/05/21 03:22:04;;;;;;;45.57;22.10;;;;;;;10.21;79.25;95169.03;5025719;28;20182;-82
2022/05/21 03:24:30;;;;;;;42.87;21.50;;;;;;;10.55;80.25;95252.28;5047267;28;20176;-81
2022/05/21 03:26:55;;;;;;;922.83;570.90;;;;;;;10.31;81.22;95225.72;5028494;28;20660;-81
2022/05/21 03:29:21;;;;;;;1999.90;999.90;;;;;;;10.53;81.15;95245.63;5051012;28;20211;-81
2022/05/21 03:31:47;;;;;;;1999.90;999.90;;;;;;;10.44;80.83;95209.97;5051098;28;20615;-84
2022/05/21 03:34:12;;;;;;;1999.90;999.90;;;;;;;10.63;80.35;95222.34;5050837;28;20571;-81
2022/05/21 03:36:38;;;;;;;1999.90;999.90;;;;;;;10.87;80.21;95242.81;5033196;28;20547;-81
2022/05/21 03:39:04;;;;;;;487.33;456.43;;;;;;;10.98;79.59;95239.53;5051276;28;20173;-81
2022/05/21 03:41:30;;;;;;;210.00;196.63;;;;;;;11.08;79.51;95249.66;5051501;28;20183;-80
2022/05/21 03:43:56;;;;;;;1999.90;999.90;;;;;;;11.17;79.12;95230.00;5051187;28;20266;-84
2022/05/21 03:46:22;;;;;;;1999.90;999.90;;;;;;;11.45;79.28;95245.56;5050984;28;20262;-81
2022/05/21 03:48:48;;;;;;;1138.80;775.00;;;;;;;11.46;78.56;95220.03;5050954;28;20187;-81
2022/05/21 03:51:14;;;;;;;1999.90;999.90;;;;;;;11.81;78.06;95260.13;5048201;28;20202;-82
2022/05/21 03:53:40;;;;;;;765.57;714.93;;;;;;;11.82;77.51;95230.91;5050718;28;20175;-81
2022/05/21 03:56:07;;;;;;;740.30;686.73;;;;;;;12.00;76.82;95246.84;5051061;28;20254;-81
2022/05/21 03:58:32;;;;;;;22.60;12.33;;;;;;;12.26;76.12;95255.66;5050970;28;20175;-81
2022/05/21 04:00:58;;;;;;;22.00;12.43;;;;;;;12.44;75.30;95248.66;5050459;28;20190;-81
2022/05/21 04:03:24;;;;;;;29.63;12.43;;;;;;;12.56;74.30;95242.69;5050666;28;20603;-80
2022/05/21 04:05:53;;;;;;;23.43;12.93;;;;;;;12.90;72.37;95271.28;5024036;28;20187;-82
2022/05/21 04:08:18;;;;;;;20.00;8.60;;;;;;;13.13;71.12;95283.94;5043104;28;20198;-82
2022/05/21 04:10:44;;;;;;;15.47;7.40;;;;;;;13.25;69.48;95281.41;5041311;28;20681;-82
2022/05/21 04:13:10;;;;;;;13.60;7.83;;;;;;;13.48;68.84;95279.00;5043379;28;20226;-82
2022/05/21 04:15:35;;;;;;;11.13;5.30;;;;;;;13.71;66.45;95287.09;5046355;28;20175;-82
2022/05/21 04:18:01;;;;;;;7.07;4.53;;;;;;;13.90;64.52;95298.50;5047754;28;20219;-82
2022/05/21 04:20:27;;;;;;;11.87;5.73;;;;;;;14.04;65.20;95281.44;5031758;28;20189;-81
2022/05/21 04:22:53;;;;;;;6.00;3.97;;;;;;;14.35;63.70;95296.34;5050590;28;20258;-83
2022/05/21 04:25:19;;;;;;;7.63;3.93;;;;;;;14.50;61.29;95280.91;5050511;28;20171;-83
2022/05/21 04:27:46;;;;;;;5.63;4.07;;;;;;;14.82;60.81;95296.56;5047467;28;20720;-84
2022/05/21 04:30:16;;;;;;;7.83;4.17;;;;;;;15.03;60.71;95301.34;5019598;28;20171;-82
2022/05/21 04:32:43;;;;;;;9.15;4.10;;;;;;;15.17;59.21;95283.38;5053257;28;20195;-82
2022/05/21 04:35:09;;;;;;;5.90;3.73;;;;;;;15.54;59.70;95284.03;5053884;28;20317;-81
2022/05/21 04:37:39;;;;;;;13.90;5.18;;;;;;;15.88;59.74;95287.69;5022332;28;20270;-82
2022/05/21 04:40:07;;;;;;;7.53;4.00;;;;;;;16.12;56.02;95290.09;5052735;28;20253;-81
2022/05/21 04:42:32;;;;;;;50.42;26.63;;;;;;;16.51;56.72;95279.72;5053659;28;20178;-81
2022/05/21 04:44:58;;;;;;;13.65;7.18;;;;;;;16.82;56.14;95273.13;5053863;28;20171;-81
2022/05/21 04:47:23;;;;;;;19.58;10.10;;;;;;;17.08;53.02;95269.84;5053725;28;20205;-81
2022/05/21 04:49:48;;;;;;;23.73;11.27;;;;;;;17.61;53.22;95284.53;5053387;28;20179;-80
2022/05/21 04:52:14;;;;;;;8.38;4.95;;;;;;;17.98;49.84;95282.16;5053171;28;20588;-80
2022/05/21 04:54:39;;;;;;;5.78;3.60;;;;;;;18.22;48.82;95259.53;5053331;28;20183;-81
2022/05/21 04:57:06;;;;;;;8.80;3.55;;;;;;;18.69;46.37;95275.03;5052935;28;20183;-80
2022/05/21 04:59:32;;;;;;;4.97;2.90;;;;;;;19.34;44.93;95290.06;5052964;28;20175;-80
2022/05/21 05:01:58;;;;;;;6.05;2.97;;;;;;;19.70;43.76;95273.28;5035363;28;20662;-81
2022/05/21 05:04:24;;;;;;;8.70;2.80;;;;;;;20.29;42.31;95270.38;5051038;28;20187;-81
2022/05/21 05:06:50;;;;;;;10.40;5.63;;;;;;;21.12;41.71;95292.59;5049423;28;20259;-82
2022/05/21 05:09:19;;;;;;;10.82;5.75;;;;;;;21.72;41.32;95299.88;5053404;28;20182;-82
2022/05/21 05:11:46;;;;;;;8.18;4.00;;;;;;;22.35;39.04;95286.09;5052525;28;20198;-80
2022/05/21 05:14:11;;;;;;;8.45;3.35;;;;;;;22.75;38.89;95261.78;5053162;28;20173;-79
2022/05/21 05:16:37;;;;;;;6.30;3.15;;;;;;;23.45;36.50;95300.00;5053175;28;20261;-79
2022/05/21 05:19:02;;;;;;;7.65;2.70;;;;;;;23.84;34.63;95267.72;5046257;28;20268;-82
2022/05/21 05:21:28;;;;;;;9.88;2.75;;;;;;;24.42;34.15;95291.88;5043778;28;20168;-82
2022/05/21 05:23:53;;;;;;;4.70;2.42;;;;;;;24.42;34.65;95241.53;5048184;28;20179;-82
2022/05/21 05:26:19;;;;;;;5.50;2.38;;;;;;;25.26;33.34;95294.84;5053729;28;20270;-80
2022/05/21 05:28:45;;;;;;;7.50;2.55;;;;;;;25.59;32.52;95290.31;5034324;28;20175;-80
2022/05/21 05:31:11;;;;;;;3.45;2.55;;;;;;;25.96;32.22;95290.22;5052762;28;20187;-80
2022/05/21 05:33:36;;;;;;;7.25;2.38;;;;;;;26.06;31.83;95259.56;5047838;28;20555;-80
2022/05/21 05:36:02;;;;;;;3.72;2.33;;;;;;;26.51;30.95;95291.13;5051258;28;20198;-80
2022/05/21 05:38:27;;;;;;;19.73;9.02;;;;;;;26.22;29.79;95244.69;5052716;28;20187;-81
2022/05/21 05:40:53;;;;;;;9.00;3.65;;;;;;;26.23;30.27;95281.38;5059570;28;20186;-81
2022/05/21 05:43:21;;;;;;;15.20;8.02;;;;;;;26.49;30.22;95282.53;5052399;28;20159;-81
2022/05/21 05:45:53;;;;;;;17.33;9.68;;;;;;;26.52;30.34;95275.72;5052855;28;20198;-81
2022/05/21 05:48:22;;;;;;;8.70;3.60;;;;;;;26.44;31.05;95276.44;5052429;28;20638;-81
2022/05/21 05:50:47;;;;;;;5.05;2.65;;;;;;;26.81;32.26;95270.78;5051219;28;20286;-80
2022/05/21 05:53:13;;;;;;;9.40;4.47;;;;;;;26.88;30.35;95264.97;5051979;28;20171;-81
2022/05/21 05:55:41;;;;;;;6.85;3.08;;;;;;;25.86;31.44;95261.53;5052176;28;20171;-80
2022/05/21 06:00:52;;;;;;;10.93;3.08;;;;;;;25.56;33.25;95256.63;5052343;28;20170;-80
2022/05/21 06:03:19;;;;;;;7.20;3.80;;;;;;;25.65;34.02;95262.19;5052481;28;20167;-81
2022/05/21 06:05:45;;;;;;;7.53;3.25;;;;;;;25.65;33.74;95233.31;5052517;28;20194;-80
2022/05/21 06:08:10;;;;;;;9.68;3.30;;;;;;;25.98;34.33;95250.25;5052146;28;20206;-80
2022/05/21 06:10:39;;;;;;;6.38;3.08;;;;;;;26.16;32.85;95246.69;5051715;28;20178;-80
2022/05/21 06:13:05;;;;;;;8.82;3.05;;;;;;;26.15;32.28;95244.28;5052255;28;20167;-80
2022/05/21 06:15:32;;;;;;;7.85;3.38;;;;;;;26.16;33.43;95238.59;5043111;28;21252;-80
2022/05/21 06:17:57;;;;;;;5.53;2.33;;;;;;;25.97;34.18;95242.47;5044363;28;20718;-80
2022/05/21 06:20:26;;;;;;;7.13;2.40;;;;;;;25.89;34.83;95235.84;5051679;28;20175;-80
2022/05/21 06:22:52;;;;;;;4.80;3.10;;;;;;;26.01;32.30;95232.69;5051514;28;20254;-80
2022/05/21 06:25:20;;;;;;;9.85;4.40;;;;;;;25.70;31.64;95235.91;5051741;28;20182;-88
2022/05/21 06:27:49;;;;;;;7.47;2.90;;;;;;;25.25;33.93;95201.63;5033930;28;20645;-82
2022/05/21 06:30:16;;;;;;;6.03;2.80;;;;;;;24.79;33.61;95162.69;5051596;28;20185;-85
2022/05/21 06:32:42;;;;;;;10.43;3.10;;;;;;;24.64;32.87;95162.13;5051540;28;20191;-83
2022/05/21 06:35:09;;;;;;;5.95;2.60;;;;;;;24.30;34.32;95162.31;5051620;28;20169;-86
2022/05/21 06:37:35;;;;;;;7.22;2.72;;;;;;;24.72;35.89;95212.63;5050637;28;20233;-86
2022/05/21 06:40:01;;;;;;;6.32;2.90;;;;;;;24.43;34.83;95146.25;5051756;28;20917;-86
2022/05/21 06:42:27;;;;;;;7.68;3.83;;;;;;;24.53;35.81;95141.81;5047974;28;20198;-86
2022/05/21 06:44:52;;;;;;;4.60;3.20;;;;;;;25.24;34.84;95217.00;5033481;28;20171;-85
2022/05/21 06:47:18;;;;;;;11.65;4.18;;;;;;;25.37;35.63;95170.41;5045812;28;20654;-85
2022/05/21 06:49:43;;;;;;;10.38;3.42;;;;;;;25.46;33.42;95151.63;5049824;28;20171;-84
2022/05/21 06:52:09;;;;;;;7.80;2.78;;;;;;;25.57;32.89;95188.13;5051351;28;21776;-85
2022/05/21 06:54:34;;;;;;;5.60;2.65;;;;;;;25.12;33.61;95147.38;5046694;28;20677;-85
2022/05/21 06:57:00;;;;;;;8.15;3.53;;;;;;;25.00;33.37;95133.53;5047380;28;20203;-85
2022/05/21 06:59:26;;;;;;;3.75;2.50;;;;;;;25.05;32.42;95146.16;5041920;28;20167;-85
2022/05/21 07:01:52;;;;;;;7.22;2.72;;;;;;;25.28;33.54;95172.16;5042554;28;20174;-85
2022/05/21 07:07:32;;;;;;;7.38;2.83;;;;;;;25.44;34.76;95172.69;5050904;28;20183;-85
2022/05/21 07:09:48;;;;;;;4.68;2.22;;;;;;;25.60;31.99;95140.94;5051125;28;20217;-84
2022/05/21 07:12:13;;;;;;;5.00;2.88;;;;;;;25.71;32.63;95116.13;5050604;28;20586;-84
2022/05/21 07:14:39;;;;;;;6.97;3.22;;;;;;;25.94;32.67;95095.47;5050949;28;20198;-82
2022/05/21 07:17:04;;;;;;;11.23;2.83;;;;;;;26.32;31.52;95097.91;5050252;28;20599;-84
2022/05/21 07:19:30;;;;;;;9.55;2.75;;;;;;;26.54;30.83;95116.88;5051690;28;20190;-85
2022/05/21 07:21:55;;;;;;;9.00;2.25;;;;;;;26.42;30.03;95124.69;5050982;28;20155;-86
2022/05/21 07:24:21;;;;;;;6.07;2.95;;;;;;;26.79;30.76;95159.50;5050845;28;20224;-84
2022/05/21 07:26:46;;;;;;;7.22;2.95;;;;;;;26.65;32.08;95083.91;5032972;28;20166;-84
2022/05/21 07:29:12;;;;;;;9.10;3.28;;;;;;;27.26;31.09;95147.31;5051020;28;20159;-83
2022/05/21 07:31:38;;;;;;;5.20;2.67;;;;;;;27.17;29.92;95146.47;5050732;28;20191;-82
2022/05/21 07:34:03;;;;;;;24.15;3.63;;;;;;;26.92;30.47;95104.63;5039986;28;20174;-82
2022/05/21 07:36:29;;;;;;;6.30;2.80;;;;;;;26.86;31.40;95119.34;5050142;28;20632;-83
2022/05/21 07:38:54;;;;;;;11.65;3.47;;;;;;;27.17;32.37;95151.06;5049802;28;20638;-82
2022/05/21 07:41:21;;;;;;;9.65;2.40;;;;;;;27.52;32.56;95141.25;5050703;28;20167;-82
2022/05/21 07:43:46;;;;;;;10.07;3.60;;;;;;;27.65;30.51;95107.94;5050700;28;20175;-84
2022/05/21 07:46:12;;;;;;;8.80;2.70;;;;;;;27.73;31.54;95131.53;5050418;28;20160;-81
2022/05/21 07:48:38;;;;;;;8.30;3.00;;;;;;;27.50;29.95;95138.09;5050693;28;20676;-80
2022/05/21 07:51:04;;;;;;;6.82;3.25;;;;;;;27.23;30.14;95130.94;5039224;28;20187;-81
2022/05/21 07:53:35;;;;;;;15.20;3.28;;;;;;;26.93;29.68;95116.25;5050598;28;20266;-80
2022/05/21 07:56:02;;;;;;;4.28;2.78;;;;;;;27.10;30.69;95139.88;5050697;28;20517;-82
2022/05/21 07:58:31;;;;;;;7.90;2.70;;;;;;;27.20;30.39;95123.41;5041313;28;20257;-81
2022/05/21 08:00:57;;;;;;;7.55;2.92;;;;;;;27.25;32.67;95109.75;5045454;28;20217;-81
2022/05/21 08:03:23;;;;;;;6.57;2.45;;;;;;;27.57;32.39;95122.22;5049965;28;20634;-82
2022/05/21 08:05:49;;;;;;;7.82;3.22;;;;;;;27.55;29.47;95113.63;5054284;28;20171;-82
2022/05/21 08:08:15;;;;;;;14.23;3.28;;;;;;;27.61;32.56;95115.06;5051725;28;20191;-84
2022/05/21 08:10:42;;;;;;;4.07;2.53;;;;;;;27.77;30.23;95094.59;5030772;28;20903;-84
2022/05/21 08:13:10;;;;;;;10.75;3.28;;;;;;;28.22;32.62;95097.94;5052569;28;20186;-84
2022/05/21 08:15:35;;;;;;;4.57;2.75;;;;;;;28.47;29.52;95096.38;5035090;28;20704;-84
2022/05/21 08:18:04;;;;;;;4.93;3.05;;;;;;;28.70;31.28;95097.84;5050537;28;20223;-84
2022/05/21 08:20:34;;;;;;;7.00;3.08;;;;;;;28.69;30.91;95077.25;5050808;28;20182;-83
2022/05/21 08:28:27;;;;;;;5.90;3.30;;;;;;;27.85;30.25;95074.09;5053423;28;20692;-82
2022/05/21 08:30:52;;;;;;;5.70;2.47;;;;;;;28.01;31.02;95073.34;5047942;28;20194;-83
2022/05/21 08:33:19;;;;;;;10.05;3.38;;;;;;;28.40;29.96;95079.78;5043817;28;20163;-83
2022/05/21 08:35:45;;;;;;;13.90;3.17;;;;;;;28.35;31.24;95047.47;5054922;28;20187;-83
2022/05/21 08:38:15;;;;;;;6.18;3.10;;;;;;;28.53;29.80;95057.19;5053358;28;20206;-83
2022/05/21 08:41:04;;;;;;;11.85;3.58;;;;;;;28.72;27.97;95086.66;5035554;28;20186;-83
2022/05/21 08:43:57;;;;;;;8.07;3.10;;;;;;;28.50;29.60;95080.28;5052641;28;20325;-83
2022/05/21 08:46:31;;;;;;;6.47;3.15;;;;;;;28.44;32.15;95075.34;5051151;28;20179;-83
2022/05/21 08:49:01;;;;;;;12.30;4.80;;;;;;;28.48;31.07;95062.75;5049405;28;20182;-83
2022/05/21 08:51:33;;;;;;;6.32;2.90;;;;;;;28.62;29.84;95070.72;5034210;28;20274;-83
2022/05/21 08:54:03;;;;;;;6.00;2.13;;;;;;;28.39;28.78;95038.38;5053455;28;20156;-83
2022/05/21 08:56:29;;;;;;;6.35;2.55;;;;;;;28.65;31.04;95076.28;5051064;28;20171;-83
2022/05/21 08:59:08;;;;;;;4.45;2.47;;;;;;;28.73;30.69;95039.47;5053144;28;20178;-83
2022/05/21 09:01:39;;;;;;;9.60;2.92;;;;;;;28.69;31.20;95030.38;5053435;28;20238;-83
2022/05/21 09:04:05;;;;;;;7.00;2.70;;;;;;;28.75;29.31;95029.91;5052559;28;20197;-83
2022/05/21 09:06:42;;;;;;;7.13;2.58;;;;;;;29.09;29.71;95066.22;5053094;28;20214;-83
2022/05/21 09:09:17;;;;;;;6.50;3.00;;;;;;;28.74;30.26;95041.84;5053109;28;20162;-83
2022/05/21 09:11:49;;;;;;;5.15;2.25;;;;;;;28.93;31.87;95065.13;5034565;28;20183;-83
2022/05/21 09:14:35;;;;;;;6.32;3.90;;;;;;;28.78;28.30;95048.28;5050225;28;20198;-83
2022/05/21 09:17:01;;;;;;;9.93;3.85;;;;;;;28.96;30.82;95059.09;5051638;28;20317;-82
2022/05/21 09:19:33;;;;;;;12.07;4.50;;;;;;;28.86;31.43;95050.16;5052777;28;20728;-83
2022/05/21 09:22:09;;;;;;;9.70;2.97;;;;;;;28.82;32.79;95042.97;5051755;28;20170;-83
2022/05/21 09:24:52;;;;;;;5.60;2.72;;;;;;;28.89;30.98;95062.25;5053028;28;20696;-83
2022/05/21 09:27:23;;;;;;;6.25;2.53;;;;;;;28.96;29.74;95056.38;5053151;28;20166;-83
2022/05/21 09:29:52;;;;;;;8.40;3.05;;;;;;;28.88;29.64;95047.13;5052968;28;20177;-83
2022/05/21 09:32:33;;;;;;;7.72;2.35;;;;;;;28.95;30.78;95052.06;5039255;28;20274;-83
2022/05/21 09:35:11;;;;;;;9.70;2.72;;;;;;;28.97;31.45;95057.97;5053182;28;20658;-83
2022/05/21 09:37:38;;;;;;;2.45;1.77;;;;;;;28.71;26.10;95025.44;5053144;28;20221;-82
2022/05/21 09:40:22;;;;;;;6.55;1.85;;;;;;;28.03;28.33;95046.75;5053043;28;20167;-83
2022/05/21 09:45:34;;;;;;;7.78;1.88;;;;;;;28.05;31.58;95033.69;5053144;28;20229;-83
2022/05/21 09:48:06;;;;;;;5.50;1.80;;;;;;;28.23;32.36;95045.38;5052728;28;20186;-83
2022/05/21 09:50:50;;;;;;;6.50;2.25;;;;;;;28.12;30.65;95004.22;5051425;28;20559;-83
2022/05/21 09:53:34;;;;;;;3.38;1.90;;;;;;;28.45;29.31;95039.03;5051534;28;20171;-83
2022/05/21 09:56:16;;;;;;;3.58;1.80;;;;;;;28.31;31.34;95022.09;5050263;28;20166;-83
2022/05/21 09:58:43;;;;;;;3.00;2.22;;;;;;;28.31;30.76;95019.41;5052183;28;20166;-83
2022/05/21 10:01:16;;;;;;;6.45;2.28;;;;;;;28.33;31.27;95019.88;5051517;28;20163;-84
2022/05/21 10:03:46;;;;;;;9.18;1.90;;;;;;;28.41;32.84;95029.91;5052506;28;20171;-83
2022/05/21 10:06:27;;;;;;;4.55;1.80;;;;;;;28.37;30.92;95026.25;5051926;28;20179;-83
2022/05/21 10:12:08;;;;;;;2.13;1.58;;;;;;;28.12;32.30;94963.59;5051921;28;20596;-83
2022/05/21 10:15:11;;;;;;;3.38;2.20;;;;;;;28.20;33.52;94956.63;5050196;28;20981;-84
2022/05/21 10:17:43;;;;;;;8.18;2.50;;;;;;;28.58;33.88;94997.41;5015869;28;20226;-83
2022/05/21 10:20:26;;;;;;;8.05;2.38;;;;;;;28.61;34.86;94998.69;5032249;28;20672;-84
2022/05/21 10:23:04;;;;;;;6.60;2.33;;;;;;;28.63;35.06;94989.09;5050727;28;20163;-84
2022/05/21 10:25:49;;;;;;;7.05;2.10;;;;;;;28.50;32.57;94965.69;5023459;28;20174;-84
2022/05/21 10:28:26;;;;;;;3.10;1.85;;;;;;;28.66;32.73;94982.25;5048287;28;20704;-83
2022/05/21 10:31:04;;;;;;;6.05;2.22;;;;;;;28.41;32.61;94962.19;5044976;28;20201;-83
2022/05/21 10:33:59;;;;;;;4.13;1.65;;;;;;;28.14;31.07;94941.63;5048918;28;20174;-83
2022/05/21 10:36:31;;;;;;;3.00;1.90;;;;;;;28.33;30.30;94982.75;5050366;28;20172;-82
2022/05/21 10:39:18;;;;;;;3.63;1.77;;;;;;;28.30;32.68;94985.31;5047676;28;20175;-82
2022/05/21 10:42:00;;;;;;;3.63;1.60;;;;;;;28.30;32.40;94975.25;5050043;28;20671;-82
2022/05/21 10:44:41;;;;;;;8.48;2.20;;;;;;;28.36;35.04;94974.00;5030804;28;20186;-82
2022/05/21 10:47:25;;;;;;;6.72;1.95;;;;;;;28.42;33.98;94961.88;5049296;28;20171;-82
2022/05/21 10:50:09;;;;;;;3.78;1.40;;;;;;;28.44;33.31;94962.38;5038793;28;20301;-84
2022/05/21 10:52:59;;;;;;;2.70;1.80;;;;;;;28.45;32.98;94955.81;5049207;28;20208;-77
2022/05/21 10:55:45;;;;;;;2.42;1.88;;;;;;;28.48;33.18;94947.03;5045481;28;20184;-80
2022/05/21 10:58:23;;;;;;;3.28;1.45;;;;;;;28.59;31.85;94941.28;5050960;28;20163;-82
2022/05/21 11:01:39;;;;;;;6.10;2.53;;;;;;;28.52;29.89;94930.94;5042255;28;20167;-84
2022/05/21 11:04:23;;;;;;;1.88;1.67;;;;;;;28.33;28.26;94935.91;5036660;28;20191;-83
2022/05/21 11:07:21;;;;;;;1.98;1.77;;;;;;;28.38;31.47;94927.63;5049422;28;20187;-84
2022/05/21 11:10:28;;;;;;;3.05;1.80;;;;;;;28.19;30.02;94873.03;5048428;28;20167;-83
2022/05/21 11:13:16;;;;;;;3.22;1.95;;;;;;;28.38;30.06;94886.97;5047678;28;20190;-84
2022/05/21 11:15:55;;;;;;;4.78;2.05;;;;;;;28.43;31.12;94889.53;5029809;28;20186;-87
2022/05/21 11:18:24;;;;;;;10.88;2.38;;;;;;;28.27;30.92;94870.31;5045107;28;20218;-88
2022/05/21 11:21:13;;;;;;;2.03;1.50;;;;;;;28.48;30.06;94900.19;5049729;28;20163;-87
2022/05/21 11:23:39;;;;;;;2.03;1.33;;;;;;;28.46;28.79;94895.09;5031208;28;20186;-84
2022/05/21 11:26:26;;;;;;;1.77;1.30;;;;;;;28.47;27.71;94882.34;5032030;28;20325;-88
2022/05/21 11:28:59;;;;;;;5.28;1.55;;;;;;;28.48;25.06;94882.03;5031619;28;20590;-80
2022/05/21 11:39:46;;;;;;;1.80;1.50;;;;;;;28.06;30.05;94864.72;5052588;28;20234;-79
2022/05/21 11:42:17;;;;;;;3.75;1.75;;;;;;;28.21;29.36;94871.56;5053613;28;20174;-81
2022/05/21 11:44:59;;;;;;;5.63;2.15;;;;;;;28.29;31.98;94880.78;5051835;28;20204;-81
2022/05/21 11:47:33;;;;;;;1.90;1.33;;;;;;;28.42;30.89;94874.41;5055012;28;20181;-83
2022/05/21 11:50:03;;;;;;;2.88;1.30;;;;;;;28.50;30.11;94879.00;5035403;28;20183;-84
2022/05/21 11:52:32;;;;;;;1.85;1.42;;;;;;;28.53;30.07;94868.31;5050366;28;20222;-86
2022/05/21 11:54:57;;;;;;;2.63;1.98;;;;;;;28.56;29.49;94864.16;5036909;28;20178;-84
2022/05/21 11:57:30;;;;;;;2.67;1.58;;;;;;;28.46;29.23;94859.88;5033741;28;20233;-86
2022/05/21 11:59:56;;;;;;;5.35;1.98;;;;;;;28.39;32.76;94837.13;5034834;28;20206;-83
2022/05/21 12:02:53;;;;;;;2.15;1.63;;;;;;;28.33;31.33;94812.13;5042623;28;20194;-83
2022/05/21 12:05:34;;;;;;;3.85;1.70;;;;;;;28.70;30.37;94848.50;5046282;28;20191;-84
2022/05/21 12:08:15;;;;;;;5.18;3.83;;;;;;;28.74;30.33;94845.91;5029060;28;20654;-85
2022/05/21 12:11:08;;;;;;;6.38;3.78;;;;;;;28.73;28.02;94845.09;5040111;28;20179;-83
2022/05/21 12:13:33;;;;;;;3.22;1.70;;;;;;;28.69;28.33;94846.09;5048871;28;20175;-83
2022/05/21 12:16:22;;;;;;;2.55;1.85;;;;;;;28.71;28.53;94843.88;5033774;28;20184;-83
2022/05/21 12:18:58;;;;;;;4.30;2.28;;;;;;;28.75;30.02;94839.38;5055178;28;20219;-82